Time;durP1;ratioP1;P1;durP2;ratioP2;P2;SDS_P1;SDS_P2;PMS_P1;PMS_P2;Temp;Humidity;BMP_temperature;BMP_pressure;BME280_temperature;BME280_humidity;BME280_pressure;Samples;Min_cycle;Max_cycle;Signal;HPM_P1;HPM_P2
2022/04/12 00:01:44;;;;;;;9.10;5.75;;;;;;;1.31;82.28;100808.94;4502492;31;20455;-70
2022/04/12 00:04:12;;;;;;;13.38;5.70;;;;;;;1.47;81.17;100796.44;4502562;31;20104;-70
2022/04/12 00:06:39;;;;;;;10.73;6.03;;;;;;;1.33;81.39;100790.81;4502686;31;20439;-70
2022/04/12 00:09:06;;;;;;;9.48;5.20;;;;;;;1.12;84.00;100797.06;4502451;31;20099;-70
2022/04/12 00:11:33;;;;;;;10.60;6.12;;;;;;;1.19;83.16;100809.41;4502447;31;20119;-70
2022/04/12 00:14:00;;;;;;;8.35;5.90;;;;;;;1.19;82.74;100811.13;4502437;31;20104;-70
2022/04/12 00:16:27;;;;;;;10.73;6.82;;;;;;;1.23;82.43;100797.41;4502440;31;20110;-70
2022/04/12 00:19:07;;;;;;;10.35;6.12;;;;;;;1.11;83.56;100789.25;4502476;31;20202;-70
2022/04/12 00:21:35;;;;;;;9.73;6.18;;;;;;;0.95;83.78;100806.00;4502148;31;20115;-70
2022/04/12 00:24:04;;;;;;;9.55;6.43;;;;;;;0.95;84.00;100801.72;4502128;31;20475;-70
2022/04/12 00:26:32;;;;;;;8.65;6.20;;;;;;;0.98;84.27;100800.91;4502124;31;20143;-70
2022/04/12 00:29:00;;;;;;;7.45;5.20;;;;;;;0.88;84.46;100798.84;4502138;31;20481;-70
2022/04/12 00:31:30;;;;;;;12.45;6.15;;;;;;;0.75;83.84;100789.78;4502058;31;20584;-70
2022/04/12 00:33:57;;;;;;;13.02;6.07;;;;;;;0.69;84.92;100792.16;4502146;31;20126;-70
2022/04/12 00:36:25;;;;;;;13.50;6.57;;;;;;;0.73;84.78;100785.38;4502141;31;20496;-70
2022/04/12 00:38:52;;;;;;;9.45;5.57;;;;;;;0.73;85.54;100788.84;4502064;31;20494;-70
2022/04/12 00:41:19;;;;;;;9.43;5.50;;;;;;;0.72;84.80;100789.66;4501920;31;20560;-70
2022/04/12 00:43:46;;;;;;;11.18;7.03;;;;;;;0.59;87.28;100787.47;4501601;31;20118;-70
2022/04/12 00:46:14;;;;;;;11.30;6.95;;;;;;;0.48;87.99;100792.28;4487177;31;20088;-70
2022/04/12 00:48:41;;;;;;;13.32;7.30;;;;;;;0.36;89.17;100794.47;4502068;31;20096;-70
2022/04/12 00:51:08;;;;;;;12.02;7.43;;;;;;;0.29;89.44;100793.34;4501967;31;20137;-70
2022/04/12 00:53:37;;;;;;;29.98;10.90;;;;;;;0.24;89.30;100784.50;4502168;31;20100;-70
2022/04/12 00:56:05;;;;;;;35.65;11.85;;;;;;;0.17;90.58;100783.41;4502060;31;20495;-70
2022/04/12 00:58:32;;;;;;;33.83;11.25;;;;;;;0.28;89.79;100786.37;4502101;31;20152;-70
2022/04/12 01:00:59;;;;;;;22.83;7.80;;;;;;;0.31;90.25;100778.72;4501881;31;20183;-70
2022/04/12 01:03:27;;;;;;;28.10;9.18;;;;;;;0.27;89.58;100787.22;4501958;31;20585;-70
2022/04/12 01:05:56;;;;;;;16.75;6.82;;;;;;;0.23;87.84;100793.13;4501871;31;20431;-70
2022/04/12 01:08:23;;;;;;;16.73;6.65;;;;;;;0.27;87.27;100794.13;4501959;31;20083;-70
2022/04/12 01:10:52;;;;;;;16.87;6.93;;;;;;;0.27;87.25;100795.00;4501896;31;20828;-70
2022/04/12 01:13:20;;;;;;;11.35;5.12;;;;;;;0.23;87.33;100780.16;4501911;31;20129;-70
2022/04/12 01:15:48;;;;;;;10.02;5.18;;;;;;;0.20;88.73;100778.34;4502030;31;20505;-70
2022/04/12 01:18:15;;;;;;;9.68;5.07;;;;;;;0.14;88.50;100783.31;4501895;31;20151;-70
2022/04/12 01:20:42;;;;;;;9.52;4.85;;;;;;;0.20;87.49;100777.47;4501750;31;20099;-70
2022/04/12 01:23:14;;;;;;;7.87;4.55;;;;;;;0.20;88.00;100780.06;4502205;31;20118;-70
2022/04/12 01:25:42;;;;;;;7.18;4.40;;;;;;;0.19;88.02;100775.69;4502019;31;20068;-70
2022/04/12 01:28:11;;;;;;;5.32;3.95;;;;;;;0.27;87.26;100766.50;4501885;31;20184;-70
2022/04/12 01:30:39;;;;;;;9.45;4.93;;;;;;;0.39;85.89;100777.31;4501793;31;20091;-70
2022/04/12 01:33:07;;;;;;;9.40;4.60;;;;;;;0.37;85.65;100766.00;4502020;31;20103;-70
2022/04/12 01:35:36;;;;;;;8.68;4.47;;;;;;;0.40;85.03;100773.00;4501763;31;20388;-70
2022/04/12 01:38:03;;;;;;;7.20;4.43;;;;;;;0.51;83.87;100760.41;4501742;31;20406;-70
2022/04/12 01:40:31;;;;;;;6.68;4.25;;;;;;;0.37;84.94;100771.16;4501768;31;20426;-70
2022/04/12 01:42:58;;;;;;;6.72;4.65;;;;;;;0.29;85.16;100775.22;4501880;31;20108;-70
2022/04/12 01:45:25;;;;;;;8.55;4.53;;;;;;;0.27;86.24;100784.62;4501816;31;20163;-70
2022/04/12 01:47:53;;;;;;;10.30;4.90;;;;;;;0.23;86.51;100777.56;4501897;31;20087;-70
2022/04/12 01:50:20;;;;;;;9.68;5.50;;;;;;;0.37;85.35;100780.66;4501786;31;20114;-70
2022/04/12 01:52:48;;;;;;;10.57;6.00;;;;;;;0.49;83.82;100775.91;4501636;31;20400;-70
2022/04/12 01:55:15;;;;;;;8.85;5.75;;;;;;;0.45;84.18;100777.50;4500556;31;20087;-70
2022/04/12 01:57:42;;;;;;;8.30;5.37;;;;;;;0.38;84.93;100788.47;4501738;31;20451;-70
2022/04/12 02:00:10;;;;;;;10.60;5.07;;;;;;;0.36;84.42;100779.78;4501652;31;20234;-70
2022/04/12 02:02:37;;;;;;;13.65;5.50;;;;;;;0.34;84.80;100780.56;4501744;31;20116;-70
2022/04/12 02:05:05;;;;;;;7.00;4.43;;;;;;;0.38;85.06;100778.09;4501717;31;20391;-70
2022/04/12 02:07:33;;;;;;;8.60;4.53;;;;;;;0.35;84.73;100785.78;4501896;31;20100;-70
2022/04/12 02:10:00;;;;;;;6.90;4.68;;;;;;;0.34;84.71;100786.59;4501597;31;20419;-70
2022/04/12 02:12:27;;;;;;;11.10;5.30;;;;;;;0.34;84.58;100777.97;4501603;31;20143;-70
2022/04/12 02:14:54;;;;;;;9.18;4.95;;;;;;;0.32;85.07;100779.59;4501532;31;20083;-70
2022/04/12 02:17:21;;;;;;;9.15;5.50;;;;;;;0.17;86.86;100774.75;4501574;31;20348;-70
2022/04/12 02:19:49;;;;;;;7.05;4.70;;;;;;;-0.03;88.98;100772.34;4501286;31;20118;-70
2022/04/12 02:22:16;;;;;;;10.18;5.15;;;;;;;-0.10;89.10;100775.53;4501269;31;20134;-70
2022/04/12 02:24:43;;;;;;;9.07;5.57;;;;;;;-0.04;89.05;100786.09;4501334;31;20092;-70
2022/04/12 02:27:10;;;;;;;12.90;5.68;;;;;;;0.04;88.70;100775.16;4501222;31;20175;-70
2022/04/12 02:29:38;;;;;;;10.68;5.87;;;;;;;-0.12;89.67;100777.16;4501371;31;20095;-70
2022/04/12 02:32:06;;;;;;;11.65;5.60;;;;;;;-0.22;90.58;100782.81;4501388;31;20602;-69
2022/04/12 02:34:34;;;;;;;10.93;5.18;;;;;;;-0.38;91.64;100776.19;4501226;31;20080;-70
2022/04/12 02:37:01;;;;;;;9.95;5.72;;;;;;;-0.40;91.78;100772.63;4501016;31;20407;-70
2022/04/12 02:39:28;;;;;;;8.57;5.47;;;;;;;-0.38;90.69;100775.31;4501073;31;20080;-70
2022/04/12 02:41:56;;;;;;;6.72;4.95;;;;;;;-0.32;89.88;100779.03;4501083;31;20191;-70
2022/04/12 02:44:23;;;;;;;10.85;4.95;;;;;;;-0.36;90.12;100779.69;4500940;31;20114;-70
2022/04/12 02:46:50;;;;;;;10.63;4.95;;;;;;;-0.38;89.90;100780.47;4500944;31;20083;-70
2022/04/12 02:49:17;;;;;;;7.78;4.82;;;;;;;-0.41;89.79;100785.53;4500790;31;20080;-70
2022/04/12 02:51:45;;;;;;;10.23;5.03;;;;;;;-0.33;89.02;100784.12;4500856;31;20819;-70
2022/04/12 02:54:13;;;;;;;9.63;5.32;;;;;;;-0.38;91.24;100780.47;4500804;31;20084;-70
2022/04/12 02:56:41;;;;;;;7.55;4.93;;;;;;;-0.45;91.52;100787.13;4500737;31;20436;-70
2022/04/12 02:59:08;;;;;;;8.93;5.30;;;;;;;-0.46;90.66;100787.94;4500680;31;20092;-70
2022/04/12 03:01:35;;;;;;;9.07;5.47;;;;;;;-0.51;90.41;100790.34;4500789;31;20100;-70
2022/04/12 03:04:03;;;;;;;9.75;5.47;;;;;;;-0.59;92.10;100789.16;4500732;31;20099;-70
2022/04/12 03:06:30;;;;;;;7.25;4.70;;;;;;;-0.52;90.91;100793.75;4502104;31;20087;-70
2022/04/12 03:08:57;;;;;;;10.77;5.35;;;;;;;-0.40;89.72;100803.72;4502721;31;20091;-70
2022/04/12 03:11:24;;;;;;;5.72;4.55;;;;;;;-0.31;89.10;100796.31;4502703;31;20493;-70
2022/04/12 03:13:52;;;;;;;8.88;5.15;;;;;;;-0.32;89.14;100799.72;4502795;31;20126;-70
2022/04/12 03:16:19;;;;;;;8.57;5.37;;;;;;;-0.35;88.61;100802.19;4502778;31;20116;-70
2022/04/12 03:18:47;;;;;;;10.50;5.78;;;;;;;-0.42;89.05;100791.56;4502737;31;20096;-70
2022/04/12 03:21:14;;;;;;;10.88;5.32;;;;;;;-0.56;91.85;100793.59;4502552;31;20104;-70
2022/04/12 03:23:41;;;;;;;9.75;6.05;;;;;;;-0.56;91.30;100797.06;4502808;31;20084;-70
2022/04/12 03:26:09;;;;;;;11.82;5.80;;;;;;;-0.74;92.68;100789.44;4502581;31;20092;-70
2022/04/12 03:28:36;;;;;;;8.75;5.05;;;;;;;-0.77;93.42;100786.75;4502781;31;20402;-70
2022/04/12 03:31:03;;;;;;;8.68;5.45;;;;;;;-0.90;94.09;100791.34;4502555;31;20398;-70
2022/04/12 03:33:30;;;;;;;10.75;5.70;;;;;;;-0.71;92.39;100786.09;4502621;31;20122;-70
2022/04/12 03:35:57;;;;;;;8.40;5.72;;;;;;;-0.67;92.25;100792.25;4502527;31;20144;-70
2022/04/12 03:38:25;;;;;;;9.50;6.12;;;;;;;-0.83;95.69;100796.84;4502697;31;20435;-70
2022/04/12 03:40:53;;;;;;;15.55;7.78;;;;;;;-0.93;95.77;100804.16;4502596;31;20188;-70
2022/04/12 03:43:20;;;;;;;10.85;5.70;;;;;;;-0.96;96.15;100803.19;4502696;31;20088;-70
2022/04/12 03:45:47;;;;;;;10.98;5.37;;;;;;;-0.92;95.68;100806.78;4487662;31;20134;-70
2022/04/12 03:48:14;;;;;;;11.52;6.37;;;;;;;-0.74;93.91;100807.56;4502502;31;20758;-70
2022/04/12 03:50:42;;;;;;;11.45;5.97;;;;;;;-0.58;91.80;100803.00;4502417;31;20203;-70
2022/04/12 03:53:09;;;;;;;9.23;6.40;;;;;;;-0.47;89.43;100806.87;4502233;31;20102;-70
2022/04/12 03:55:39;;;;;;;10.68;6.90;;;;;;;-0.36;87.98;100807.28;4502309;31;20459;-70
2022/04/12 03:58:08;;;;;;;10.15;6.37;;;;;;;-0.42;89.42;100807.09;4502226;31;20454;-70
2022/04/12 04:00:36;;;;;;;11.90;6.12;;;;;;;-0.43;88.69;100805.28;4501640;31;20374;-72
2022/04/12 04:03:04;;;;;;;12.45;7.10;;;;;;;-0.41;88.46;100807.13;4510009;31;20437;-72
2022/04/12 04:05:31;;;;;;;14.52;6.87;;;;;;;-0.27;87.22;100816.31;4513611;31;20138;-72
2022/04/12 04:07:58;;;;;;;14.32;6.68;;;;;;;-0.28;87.38;100818.84;4517796;31;20122;-72
2022/04/12 04:10:26;;;;;;;12.37;7.12;;;;;;;-0.46;89.93;100813.81;4503147;31;20091;-72
2022/04/12 04:12:53;;;;;;;13.18;7.40;;;;;;;-0.50;90.43;100817.09;4503106;31;20113;-70
2022/04/12 04:15:20;;;;;;;19.75;7.25;;;;;;;-0.47;90.61;100814.66;4502186;31;20091;-70
2022/04/12 04:17:48;;;;;;;13.82;6.85;;;;;;;-0.62;92.78;100808.88;4507351;31;20488;-70
2022/04/12 04:20:18;;;;;;;13.05;6.68;;;;;;;-0.76;94.10;100809.19;4514072;31;75626;-70
2022/04/12 04:22:45;;;;;;;16.37;7.40;;;;;;;-0.81;93.55;100817.59;4509520;31;20095;-70
2022/04/12 04:25:15;;;;;;;12.77;6.78;;;;;;;-0.67;93.04;100816.47;4517921;31;20507;-70
2022/04/12 04:27:43;;;;;;;14.38;6.37;;;;;;;-0.54;91.85;100810.03;4503396;31;20488;-70
2022/04/12 04:30:11;;;;;;;13.73;7.25;;;;;;;-0.50;90.58;100810.22;4517919;31;20152;-70
2022/04/12 04:32:39;;;;;;;16.83;6.90;;;;;;;-0.54;92.48;100812.63;4517947;31;20135;-70
2022/04/12 04:35:07;;;;;;;28.65;7.57;;;;;;;-0.53;93.09;100815.31;4518238;31;20092;-70
2022/04/12 04:37:52;;;;;;;12.48;7.28;;;;;;;-0.46;92.35;100819.00;4517918;31;20118;-70
2022/04/12 04:40:21;;;;;;;14.50;6.53;;;;;;;-0.24;91.43;100810.37;4518245;31;20096;-70
2022/04/12 04:42:52;;;;;;;16.70;7.15;;;;;;;-0.19;89.26;100813.13;4517905;31;20152;-70
2022/04/12 04:45:20;;;;;;;13.05;6.53;;;;;;;-0.12;88.82;100816.00;4517675;31;20292;-70
2022/04/12 04:47:48;;;;;;;14.27;6.65;;;;;;;-0.05;88.00;100818.00;4517823;31;20099;-70
2022/04/12 04:50:20;;;;;;;17.17;6.93;;;;;;;0.03;88.19;100825.19;4517865;31;20152;-70
2022/04/12 04:52:48;;;;;;;16.83;6.82;;;;;;;0.18;87.91;100821.47;4517638;31;20131;-70
2022/04/12 04:55:16;;;;;;;15.20;6.75;;;;;;;0.25;89.44;100820.00;4503098;31;20763;-70
2022/04/12 04:57:44;;;;;;;19.50;7.25;;;;;;;0.39;87.97;100829.16;4510037;31;20518;-70
2022/04/12 05:00:15;;;;;;;16.10;6.85;;;;;;;0.51;87.69;100828.69;4505702;31;20107;-70
2022/04/12 05:02:44;;;;;;;18.70;9.25;;;;;;;0.62;86.90;100829.97;4509394;31;20191;-72
2022/04/12 05:05:11;;;;;;;19.20;8.60;;;;;;;0.76;85.13;100829.56;4509764;31;20091;-72
2022/04/12 05:07:40;;;;;;;20.37;8.85;;;;;;;0.94;84.23;100828.47;4509925;31;21075;-70
2022/04/12 05:10:09;;;;;;;21.80;9.43;;;;;;;1.12;83.92;100835.12;4501724;31;20575;-70
2022/04/12 05:12:36;;;;;;;20.52;9.93;;;;;;;1.34;83.87;100839.28;4501624;31;20136;-70
2022/04/12 05:15:04;;;;;;;27.37;10.93;;;;;;;1.59;83.85;100840.97;4501539;31;20109;-70
2022/04/12 05:17:31;;;;;;;25.33;11.63;;;;;;;1.81;82.96;100842.53;4501374;31;20092;-70
2022/04/12 05:19:58;;;;;;;37.42;11.88;;;;;;;1.94;82.49;100846.38;4501465;31;20106;-70
2022/04/12 05:22:26;;;;;;;23.83;11.20;;;;;;;1.99;82.43;100848.28;4501107;31;20113;-70
2022/04/12 05:24:54;;;;;;;24.10;10.00;;;;;;;2.05;81.99;100847.56;4501724;31;20096;-70
2022/04/12 05:27:21;;;;;;;19.55;9.90;;;;;;;2.19;80.92;100854.09;4501265;31;20755;-70
2022/04/12 05:29:49;;;;;;;37.05;12.43;;;;;;;2.39;79.65;100855.53;4500873;31;20087;-70
2022/04/12 05:32:16;;;;;;;34.53;13.30;;;;;;;2.41;81.87;100852.12;4501486;31;20499;-70
2022/04/12 05:34:43;;;;;;;36.33;12.63;;;;;;;2.47;82.29;100855.75;4501493;31;20122;-70
2022/04/12 05:37:11;;;;;;;27.87;11.85;;;;;;;2.66;80.24;100849.34;4501302;31;20167;-70
2022/04/12 05:39:38;;;;;;;26.15;11.82;;;;;;;2.72;79.35;100857.34;4501110;31;20158;-70
2022/04/12 05:42:05;;;;;;;23.90;12.23;;;;;;;2.86;78.59;100857.69;4500853;31;20091;-70
2022/04/12 05:44:33;;;;;;;25.83;11.73;;;;;;;3.00;77.97;100866.75;4500741;31;20325;-70
2022/04/12 05:47:03;;;;;;;28.48;14.10;;;;;;;3.25;77.35;100867.37;4501364;31;20088;-70
2022/04/12 05:49:31;;;;;;;28.25;13.48;;;;;;;3.41;77.18;100863.44;4501366;31;20484;-70
2022/04/12 05:51:59;;;;;;;31.48;12.75;;;;;;;3.64;75.68;100872.72;4509089;31;20412;-70
2022/04/12 05:54:26;;;;;;;50.65;33.60;;;;;;;3.90;75.07;100875.94;4517087;31;20459;-70
2022/04/12 05:56:53;;;;;;;31.80;11.10;;;;;;;4.05;74.48;100872.78;4504274;31;20126;-70
2022/04/12 05:59:22;;;;;;;23.05;10.65;;;;;;;4.20;73.48;100873.09;4500747;31;20112;-70
2022/04/12 06:01:49;;;;;;;15.70;9.57;;;;;;;4.34;73.81;100881.22;4502049;31;20140;-70
2022/04/12 06:04:17;;;;;;;24.30;10.57;;;;;;;4.53;72.85;100885.13;4501711;31;20813;-70
2022/04/12 06:06:45;;;;;;;21.73;10.55;;;;;;;4.65;72.90;100880.16;4501008;31;20091;-70
2022/04/12 06:09:12;;;;;;;20.88;10.35;;;;;;;4.83;72.78;100879.62;4502276;31;20167;-70
2022/04/12 06:11:39;;;;;;;18.87;9.60;;;;;;;5.03;72.38;100878.28;4501866;31;20152;-70
2022/04/12 06:14:07;;;;;;;16.87;10.48;;;;;;;5.20;71.80;100878.59;4502055;31;20761;-69
2022/04/12 06:16:34;;;;;;;19.52;9.43;;;;;;;5.38;71.55;100877.16;4487477;31;20781;-70
2022/04/12 06:19:01;;;;;;;25.15;9.35;;;;;;;5.57;69.65;100873.97;4501821;31;20764;-70
2022/04/12 06:21:28;;;;;;;27.95;9.55;;;;;;;5.76;68.69;100883.00;4501818;31;20079;-70
2022/04/12 06:23:55;;;;;;;15.95;7.95;;;;;;;6.03;66.69;100887.78;4501998;31;20118;-70
2022/04/12 06:26:23;;;;;;;19.40;8.02;;;;;;;6.27;63.39;100887.28;4501565;31;20133;-70
2022/04/12 06:28:50;;;;;;;13.45;7.65;;;;;;;6.40;61.72;100888.31;4501646;31;20091;-69
2022/04/12 06:31:17;;;;;;;16.50;7.70;;;;;;;6.54;61.12;100881.53;4501828;31;20124;-69
2022/04/12 06:33:45;;;;;;;11.27;6.87;;;;;;;6.69;60.03;100889.56;4501649;31;20080;-69
2022/04/12 06:36:12;;;;;;;11.80;6.78;;;;;;;6.87;58.49;100888.03;4501253;31;20126;-70
2022/04/12 06:38:39;;;;;;;18.58;7.07;;;;;;;7.01;57.47;100894.28;4501635;31;20095;-70
2022/04/12 06:41:07;;;;;;;17.92;7.32;;;;;;;7.11;58.30;100887.41;4500871;31;20084;-70
2022/04/12 06:43:34;;;;;;;16.80;6.37;;;;;;;7.28;57.47;100884.94;4501533;31;20411;-69
2022/04/12 06:46:01;;;;;;;20.58;5.93;;;;;;;7.48;56.58;100890.38;4501654;31;20455;-70
2022/04/12 06:48:30;;;;;;;8.35;6.22;;;;;;;7.55;55.71;100895.69;4501676;31;20180;-70
2022/04/12 06:51:02;;;;;;;12.90;6.37;;;;;;;7.70;55.57;100896.66;4501224;31;20130;-70
2022/04/12 06:53:30;;;;;;;11.20;6.28;;;;;;;7.82;54.74;100891.53;4501068;31;20156;-70
2022/04/12 06:55:57;;;;;;;20.35;6.43;;;;;;;7.96;54.06;100892.50;4501508;31;20118;-70
2022/04/12 06:58:24;;;;;;;12.57;6.03;;;;;;;8.02;52.58;100889.94;4501425;31;20186;-70
2022/04/12 07:00:52;;;;;;;13.57;5.45;;;;;;;8.13;52.51;100890.00;4501544;31;20706;-70
2022/04/12 07:03:20;;;;;;;13.07;6.03;;;;;;;8.20;52.22;100894.41;4501147;31;20450;-70
2022/04/12 07:05:49;;;;;;;11.18;5.85;;;;;;;8.29;52.05;100889.19;4501151;31;20122;-70
2022/04/12 07:08:16;;;;;;;12.15;6.10;;;;;;;8.36;52.08;100891.00;4501450;31;20104;-69
2022/04/12 07:10:48;;;;;;;10.20;5.80;;;;;;;8.41;51.50;100892.78;4501302;31;20077;-70
2022/04/12 07:13:16;;;;;;;12.20;5.45;;;;;;;8.61;50.90;100892.00;4501220;31;20088;-70
2022/04/12 07:15:43;;;;;;;9.60;5.07;;;;;;;8.86;49.16;100881.59;4500315;31;20092;-70
2022/04/12 07:18:11;;;;;;;13.70;5.25;;;;;;;8.96;49.28;100890.41;4500075;31;20139;-71
2022/04/12 07:20:38;;;;;;;14.38;5.70;;;;;;;9.06;49.35;100895.69;4489556;31;20198;-70
2022/04/12 07:23:05;;;;;;;16.08;5.40;;;;;;;9.18;50.64;100893.94;4508298;31;20076;-70
2022/04/12 07:25:32;;;;;;;13.10;5.80;;;;;;;9.41;50.44;100899.25;4509965;31;20258;-70
2022/04/12 07:28:00;;;;;;;16.05;5.03;;;;;;;9.43;47.59;100898.34;4507362;31;20128;-68
2022/04/12 07:30:27;;;;;;;8.50;5.03;;;;;;;9.57;49.14;100896.62;4509216;31;20096;-68
2022/04/12 07:33:14;;;;;;;10.55;4.43;;;;;;;9.66;46.29;100893.12;4507300;31;20525;-68
2022/04/12 07:35:41;;;;;;;11.32;6.70;;;;;;;9.94;48.08;100901.00;4506292;31;20776;-68
2022/04/12 07:38:09;;;;;;;16.33;6.70;;;;;;;9.98;46.28;100894.84;4508832;31;20160;-68
2022/04/12 07:40:36;;;;;;;11.07;6.47;;;;;;;10.04;46.67;100901.00;4507138;31;20529;-67
2022/04/12 07:43:03;;;;;;;16.42;6.22;;;;;;;10.22;46.49;100900.09;4500791;31;20513;-68
2022/04/12 07:45:31;;;;;;;14.82;6.87;;;;;;;10.45;48.54;100896.53;4500609;31;20095;-69
2022/04/12 07:47:59;;;;;;;16.50;7.03;;;;;;;10.53;46.04;100903.56;4504396;31;20202;-67
2022/04/12 07:50:27;;;;;;;28.12;7.00;;;;;;;10.65;45.45;100899.09;4501291;31;20088;-67
2022/04/12 07:52:54;;;;;;;14.30;7.22;;;;;;;10.85;47.52;100899.91;4512003;31;20103;-68
2022/04/12 07:55:21;;;;;;;16.37;6.40;;;;;;;10.91;45.24;100907.75;4519060;31;20099;-69
2022/04/12 07:57:48;;;;;;;10.20;6.20;;;;;;;11.18;45.77;100911.16;4518468;31;20091;-68
2022/04/12 08:00:16;;;;;;;36.65;7.53;;;;;;;11.21;45.13;100908.50;4518624;31;20113;-69
2022/04/12 08:02:43;;;;;;;11.48;5.70;;;;;;;11.21;44.91;100914.66;4517657;31;20119;-69
2022/04/12 08:05:10;;;;;;;11.32;6.00;;;;;;;11.46;44.09;100911.84;4517058;31;20118;-69
2022/04/12 08:07:39;;;;;;;11.68;4.95;;;;;;;11.58;43.55;100922.31;4518681;31;20482;-69
2022/04/12 08:10:07;;;;;;;9.32;5.10;;;;;;;11.78;43.55;100908.09;4518507;31;20166;-68
2022/04/12 08:12:34;;;;;;;9.02;5.43;;;;;;;11.77;42.44;100912.50;4518054;31;20088;-68
2022/04/12 08:15:05;;;;;;;15.30;5.65;;;;;;;11.81;41.99;100915.97;4512299;31;20092;-69
2022/04/12 08:17:33;;;;;;;13.82;5.40;;;;;;;12.00;42.28;100919.38;4503119;31;20166;-68
2022/04/12 08:20:00;;;;;;;12.73;5.00;;;;;;;12.23;43.49;100922.66;4502713;31;20463;-68
2022/04/12 08:22:27;;;;;;;6.82;4.30;;;;;;;12.36;43.48;100926.03;4502761;31;20088;-69
2022/04/12 08:25:14;;;;;;;;;;;;;;;12.24;39.51;100929.69;4503133;31;20234;-68
2022/04/12 08:27:41;;;;;;;;;;;;;;;12.25;39.25;100927.94;4502754;31;20025;-68
2022/04/12 08:30:09;;;;;;;;;;;;;;;12.56;44.61;100920.56;4488210;31;19989;-68
2022/04/12 08:32:37;;;;;;;7.85;4.10;;;;;;;12.71;40.85;100927.41;4504942;31;20050;-68
2022/04/12 08:35:05;;;;;;;9.77;4.10;;;;;;;12.82;39.54;100926.38;4507654;31;20174;-69
2022/04/12 08:37:32;;;;;;;8.52;4.30;;;;;;;12.85;37.61;100929.00;4502835;31;20168;-69
2022/04/12 08:40:00;;;;;;;7.07;4.07;;;;;;;13.00;39.71;100925.28;4502671;31;20170;-69
2022/04/12 08:42:27;;;;;;;7.20;4.10;;;;;;;13.05;39.75;100922.59;4502503;31;20115;-69
2022/04/12 08:44:54;;;;;;;6.78;3.87;;;;;;;13.12;38.33;100926.91;4502612;31;20151;-68
2022/04/12 08:47:23;;;;;;;8.80;4.12;;;;;;;13.19;39.88;100927.69;4487864;31;20108;-69
2022/04/12 08:49:51;;;;;;;9.13;3.83;;;;;;;13.27;37.70;100924.06;4502292;31;20076;-68
2022/04/12 08:52:18;;;;;;;25.02;4.37;;;;;;;13.51;41.11;100922.84;4502610;31;20156;-68
2022/04/12 08:54:45;;;;;;;7.40;3.85;;;;;;;13.52;38.74;100926.34;4502309;31;20122;-68
2022/04/12 08:57:13;;;;;;;6.85;4.03;;;;;;;13.77;35.99;100933.00;4502226;31;20498;-67
2022/04/12 08:59:41;;;;;;;8.45;3.95;;;;;;;13.81;36.61;100926.75;4502168;31;20182;-68
2022/04/12 09:02:09;;;;;;;9.30;3.58;;;;;;;13.83;35.54;100926.75;4501839;31;20099;-68
2022/04/12 09:04:37;;;;;;;11.50;4.37;;;;;;;13.62;36.47;100920.88;4501181;31;20121;-68
2022/04/12 09:07:08;;;;;;;8.38;4.30;;;;;;;13.73;38.36;100918.06;4504266;31;20100;-68
2022/04/12 09:09:38;;;;;;;7.40;3.50;;;;;;;13.88;35.32;100920.44;4503033;31;20096;-68
2022/04/12 09:12:08;;;;;;;7.85;4.45;;;;;;;14.22;36.95;100916.34;4502033;31;20104;-68
2022/04/12 09:14:39;;;;;;;17.08;4.10;;;;;;;14.29;34.78;100918.84;4517484;31;20084;-68
2022/04/12 09:17:08;;;;;;;10.38;4.35;;;;;;;14.30;35.84;100906.47;4517822;31;20103;-68
2022/04/12 09:19:44;;;;;;;10.27;3.65;;;;;;;14.32;37.70;100908.19;4506760;31;20092;-68
2022/04/12 09:22:16;;;;;;;8.48;3.87;;;;;;;14.46;33.95;100904.41;4517844;31;20118;-67
2022/04/12 09:24:45;;;;;;;8.05;3.83;;;;;;;14.38;37.77;100903.66;4518354;31;20712;-67
2022/04/12 09:27:16;;;;;;;10.13;4.28;;;;;;;14.65;33.63;100899.62;4517964;31;20150;-67
2022/04/12 09:29:55;;;;;;;10.40;4.20;;;;;;;14.70;33.95;100897.75;4517730;31;20080;-67
2022/04/12 09:32:24;;;;;;;7.40;4.15;;;;;;;14.74;33.64;100887.06;4517938;31;20277;-67
2022/04/12 09:34:53;;;;;;;8.27;4.60;;;;;;;14.80;34.20;100889.56;4517274;31;20084;-68
2022/04/12 09:37:24;;;;;;;8.20;4.50;;;;;;;15.03;35.56;100890.87;4517612;31;20144;-68
2022/04/12 09:39:54;;;;;;;13.10;4.05;;;;;;;15.11;33.30;100891.56;4518277;31;20641;-67
2022/04/12 09:42:48;;;;;;;24.75;4.78;;;;;;;15.33;32.97;100885.75;4518158;31;20091;-68
2022/04/12 09:45:27;;;;;;;24.77;3.83;;;;;;;15.42;32.19;100882.91;4510079;31;20099;-68
2022/04/12 09:48:15;;;;;;;7.30;4.62;;;;;;;15.35;34.14;100881.28;4516722;31;20758;-68
2022/04/12 09:51:03;;;;;;;7.72;4.32;;;;;;;15.71;33.71;100891.03;4506741;31;20206;-68
2022/04/12 09:53:40;;;;;;;7.72;3.97;;;;;;;15.03;34.35;100880.25;4512331;31;20780;-67
2022/04/12 09:56:23;;;;;;;4.35;3.30;;;;;;;14.84;31.65;100877.13;4504156;31;20091;-68
2022/04/12 09:58:54;;;;;;;6.80;3.90;;;;;;;14.93;33.28;100870.75;4502098;31;20529;-67
2022/04/12 10:01:22;;;;;;;10.55;4.62;;;;;;;15.46;33.77;100871.28;4512585;31;20174;-67
2022/04/12 10:03:58;;;;;;;6.47;3.92;;;;;;;15.68;32.52;100871.66;4511065;31;20096;-67
2022/04/12 10:06:28;;;;;;;7.57;4.00;;;;;;;15.17;32.94;100870.19;4502049;31;20099;-68
2022/04/12 10:09:02;;;;;;;7.60;4.47;;;;;;;14.96;33.27;100868.03;4502089;31;20091;-68
2022/04/12 10:11:29;;;;;;;9.35;4.78;;;;;;;15.52;31.62;100868.50;4502086;31;20148;-67
2022/04/12 10:14:00;;;;;;;6.05;4.00;;;;;;;15.34;32.64;100860.97;4502331;31;20773;-68
2022/04/12 10:16:28;;;;;;;8.25;3.97;;;;;;;15.81;31.53;100854.50;4507841;31;20111;-68
2022/04/12 10:18:58;;;;;;;11.02;4.60;;;;;;;16.28;33.25;100851.47;4501742;31;20095;-68
2022/04/12 10:21:26;;;;;;;10.23;3.80;;;;;;;16.60;31.51;100847.88;4501564;31;20110;-68
2022/04/12 10:23:56;;;;;;;5.78;3.90;;;;;;;16.75;30.41;100849.25;4501933;31;20983;-68
2022/04/12 10:26:25;;;;;;;12.73;5.10;;;;;;;16.91;30.97;100845.22;4501723;31;20088;-68
2022/04/12 10:28:54;;;;;;;7.72;4.10;;;;;;;16.53;30.78;100841.88;4501629;31;20150;-68
2022/04/12 10:31:30;;;;;;;7.12;4.72;;;;;;;16.07;31.55;100843.16;4501978;31;20723;-68
2022/04/12 10:34:11;;;;;;;11.02;3.95;;;;;;;16.25;30.29;100841.78;4501635;31;20148;-68
2022/04/12 10:36:54;;;;;;;7.28;4.00;;;;;;;16.50;33.02;100831.31;4501190;31;20118;-68
2022/04/12 10:39:50;;;;;;;9.88;4.50;;;;;;;17.23;32.07;100830.03;4501595;31;20103;-68
2022/04/12 10:42:19;;;;;;;5.90;4.00;;;;;;;17.82;31.32;100828.06;4501320;31;20079;-67
2022/04/12 10:44:57;;;;;;;7.85;4.25;;;;;;;18.23;30.01;100820.34;4509144;31;20391;-68
2022/04/12 10:47:27;;;;;;;8.57;4.62;;;;;;;17.94;28.49;100825.88;4509512;31;20111;-68
2022/04/12 10:49:58;;;;;;;10.60;4.50;;;;;;;18.11;29.87;100823.47;4507331;31;20552;-69
2022/04/12 10:52:41;;;;;;;8.23;4.20;;;;;;;18.18;28.36;100819.66;4507896;31;20115;-68
2022/04/12 10:55:25;;;;;;;10.13;4.95;;;;;;;18.14;28.14;100807.38;4499413;31;20130;-68
2022/04/12 10:58:09;;;;;;;8.13;3.95;;;;;;;18.14;30.29;100813.56;4499067;31;20119;-67
2022/04/12 11:00:36;;;;;;;7.20;4.20;;;;;;;18.22;29.58;100804.41;4505691;31;20140;-68
2022/04/12 11:03:06;;;;;;;7.68;4.07;;;;;;;18.61;29.50;100813.59;4499150;31;20092;-68
2022/04/12 11:05:39;;;;;;;9.20;4.25;;;;;;;18.90;29.49;100808.09;4499199;31;20498;-68
2022/04/12 11:08:36;;;;;;;8.23;4.12;;;;;;;18.49;28.65;100799.87;4498839;31;20221;-67
2022/04/12 11:11:04;;;;;;;6.43;4.10;;;;;;;18.77;27.59;100805.03;4492515;31;20104;-69
2022/04/12 11:13:34;;;;;;;8.48;3.67;;;;;;;20.03;28.61;100801.53;4508195;31;20528;-68
2022/04/12 11:16:06;;;;;;;8.23;4.35;;;;;;;21.18;26.34;100789.97;4500128;31;20130;-68
2022/04/12 11:18:57;;;;;;;20.10;4.75;;;;;;;22.62;25.46;100787.84;4500855;31;20168;-68
2022/04/12 11:21:26;;;;;;;7.82;5.35;;;;;;;22.88;23.99;100789.06;4501188;31;20159;-68
2022/04/12 11:24:01;;;;;;;5.45;4.45;;;;;;;23.41;22.97;100787.81;4501135;31;20107;-68
2022/04/12 11:26:44;;;;;;;10.57;4.53;;;;;;;24.70;20.77;100771.81;4501215;31;20072;-68
2022/04/12 11:29:13;;;;;;;5.62;3.55;;;;;;;24.68;20.17;100774.62;4503125;31;20080;-69
2022/04/12 11:31:50;;;;;;;7.30;4.32;;;;;;;25.91;20.37;100775.41;4502770;31;20099;-69
2022/04/12 11:34:18;;;;;;;6.32;4.68;;;;;;;25.94;20.15;100769.81;4502726;31;20091;-68